Time;durP1;ratioP1;P1;durP2;ratioP2;P2;SDS_P1;SDS_P2;PMS_P1;PMS_P2;Temp;Humidity;BMP_temperature;BMP_pressure;BME280_temperature;BME280_humidity;BME280_pressure;Samples;Min_cycle;Max_cycle;Signal;HPM_P1;HPM_P2
2022/01/18 00:01:34;;;;;;;8.40;6.70;;;;;;;;;;5038058;28;20032;-57
2022/01/18 00:04:00;;;;;;;11.80;7.55;;;;;;;;;;5054991;28;20108;-56
2022/01/18 00:06:26;;;;;;;7.67;6.00;;;;;;;;;;5054883;28;20039;-56
2022/01/18 00:08:52;;;;;;;14.15;7.35;;;;;;;;;;5054796;28;20040;-54
2022/01/18 00:11:21;;;;;;;8.73;6.55;;;;;;;;;;5054993;28;20497;-56
2022/01/18 00:13:56;;;;;;;11.60;7.80;;;;;;;;;;5054946;28;20037;-54
2022/01/18 00:16:38;;;;;;;8.00;6.88;;;;;;;;;;5054736;28;20036;-55
2022/01/18 00:19:09;;;;;;;11.77;7.47;;;;;;;;;;5053828;28;20033;-56
2022/01/18 00:21:50;;;;;;;13.55;6.93;;;;;;;;;;5054973;28;20071;-57
2022/01/18 00:24:17;;;;;;;9.35;7.80;;;;;;;;;;5055037;28;20039;-56
2022/01/18 00:26:43;;;;;;;9.43;7.20;;;;;;;;;;5054699;28;20063;-56
2022/01/18 00:29:12;;;;;;;9.50;7.13;;;;;;;;;;5054200;28;20268;-56
2022/01/18 00:32:00;;;;;;;9.95;7.50;;;;;;;;;;5054306;28;20036;-56
2022/01/18 00:34:31;;;;;;;10.02;7.70;;;;;;;;;;5040022;28;20521;-56
2022/01/18 00:39:23;;;;;;;11.27;8.88;;;;;;;;;;5033094;28;20041;-56
2022/01/18 00:41:50;;;;;;;13.43;8.50;;;;;;;;;;5034339;28;20068;-56
2022/01/18 00:44:16;;;;;;;9.23;7.20;;;;;;;;;;5034674;28;20056;-56
2022/01/18 00:46:42;;;;;;;7.88;6.55;;;;;;;;;;5034582;28;20105;-56
2022/01/18 00:49:10;;;;;;;8.98;6.68;;;;;;;;;;5033856;28;20048;-57
2022/01/18 00:51:38;;;;;;;10.30;7.72;;;;;;;;;;5034290;28;20069;-56
2022/01/18 00:54:05;;;;;;;9.75;7.95;;;;;;;;;;5034387;28;20116;-56
2022/01/18 00:56:32;;;;;;;12.00;7.13;;;;;;;;;;5034197;28;20030;-54
2022/01/18 00:58:59;;;;;;;11.77;8.50;;;;;;;;;;5033638;28;20041;-57
2022/01/18 01:01:27;;;;;;;8.77;7.20;;;;;;;;;;5035576;28;20033;-56
2022/01/18 01:03:56;;;;;;;12.27;8.35;;;;;;;;;;5054035;28;20068;-57
2022/01/18 01:06:22;;;;;;;11.85;7.63;;;;;;;;;;5054086;28;20025;-56
2022/01/18 01:08:49;;;;;;;8.95;6.80;;;;;;;;;;5053351;28;20064;-55
2022/01/18 01:11:15;;;;;;;11.85;9.10;;;;;;;;;;5053854;28;20068;-56
2022/01/18 01:13:44;;;;;;;10.13;7.07;;;;;;;;;;5053695;28;20479;-56
2022/01/18 01:43:24;;;;;;;12.57;8.10;;;;;;;;;;5033539;28;20064;-56
2022/01/18 01:45:51;;;;;;;13.18;9.38;;;;;;;;;;5033476;28;20033;-57
2022/01/18 01:48:18;;;;;;;16.85;9.15;;;;;;;;;;5032653;28;20152;-56
2022/01/18 01:53:11;;;;;;;12.57;9.10;;;;;;;;;;5033356;28;20034;-55
2022/01/18 01:55:37;;;;;;;12.45;9.05;;;;;;;;;;5033057;28;20549;-56
2022/01/18 01:58:04;;;;;;;12.60;8.52;;;;;;;;;;5032437;28;20036;-57
2022/01/18 02:00:30;;;;;;;12.85;8.73;;;;;;;;;;5033059;28;20064;-57
2022/01/18 02:02:56;;;;;;;15.27;10.25;;;;;;;;;;5047186;28;20482;-57
2022/01/18 02:05:23;;;;;;;12.15;9.07;;;;;;;;;;5052666;28;20036;-56
2022/01/18 02:07:49;;;;;;;11.98;8.80;;;;;;;;;;5052286;28;20068;-56
2022/01/18 02:10:15;;;;;;;12.90;8.82;;;;;;;;;;5052958;28;20021;-56
2022/01/18 02:12:41;;;;;;;13.18;9.38;;;;;;;;;;5052731;28;20029;-57
2022/01/18 02:15:17;;;;;;;16.27;11.02;;;;;;;;;;5052767;28;20036;-56
2022/01/18 02:23:24;;;;;;;14.80;9.55;;;;;;;;;;5052732;28;20036;-59
2022/01/18 02:25:50;;;;;;;16.75;10.48;;;;;;;;;;5052938;28;20021;-59
2022/01/18 02:28:17;;;;;;;17.88;12.48;;;;;;;;;;5051555;28;20057;-58
2022/01/18 02:30:44;;;;;;;16.98;10.57;;;;;;;;;;5052631;28;20104;-59
2022/01/18 02:33:10;;;;;;;16.27;11.75;;;;;;;;;;5048204;28;20406;-57
2022/01/18 02:35:36;;;;;;;18.77;12.43;;;;;;;;;;5032479;28;20037;-59
2022/01/18 02:38:03;;;;;;;12.85;10.05;;;;;;;;;;5031718;28;20099;-58
2022/01/18 02:40:30;;;;;;;13.63;10.85;;;;;;;;;;5032488;28;20030;-59
2022/01/18 02:42:59;;;;;;;16.95;10.30;;;;;;;;;;5031941;28;20033;-59
2022/01/18 02:45:26;;;;;;;16.67;12.23;;;;;;;;;;5032556;28;20361;-59
2022/01/18 02:47:52;;;;;;;13.38;10.43;;;;;;;;;;5031796;28;20029;-60
2022/01/18 02:50:19;;;;;;;17.90;12.25;;;;;;;;;;5032438;28;20499;-59
2022/01/18 02:52:45;;;;;;;11.50;9.23;;;;;;;;;;5032300;28;20057;-59
2022/01/18 02:55:11;;;;;;;15.38;11.07;;;;;;;;;;5032138;28;20026;-58
2022/01/18 02:57:51;;;;;;;17.60;11.43;;;;;;;;;;5031743;28;20486;-59
2022/01/18 03:00:26;;;;;;;14.60;11.25;;;;;;;;;;5032435;28;20427;-59
2022/01/18 03:05:36;;;;;;;14.88;11.48;;;;;;;;;;5052082;28;20084;-59
2022/01/18 03:08:02;;;;;;;15.02;11.13;;;;;;;;;;5051498;28;20533;-58
2022/01/18 03:10:28;;;;;;;12.63;11.18;;;;;;;;;;5052352;28;20144;-58
2022/01/18 03:12:54;;;;;;;18.25;12.18;;;;;;;;;;5050202;28;20162;-58
2022/01/18 03:15:20;;;;;;;16.83;12.55;;;;;;;;;;5051891;28;20033;-59
2022/01/18 03:17:46;;;;;;;16.65;12.00;;;;;;;;;;5051399;28;20043;-60
2022/01/18 03:20:15;;;;;;;19.33;12.25;;;;;;;;;;5051700;28;20052;-58
2022/01/18 03:22:41;;;;;;;19.83;12.98;;;;;;;;;;5051933;28;20036;-57
2022/01/18 03:25:26;;;;;;;16.52;12.90;;;;;;;;;;5051898;28;20029;-59
2022/01/18 03:28:05;;;;;;;20.67;13.63;;;;;;;;;;5051269;28;20143;-56
2022/01/18 03:30:34;;;;;;;23.00;13.27;;;;;;;;;;5051808;28;20108;-58
2022/01/18 03:33:00;;;;;;;18.85;11.52;;;;;;;;;;5048931;28;20068;-58
2022/01/18 03:35:25;;;;;;;14.82;11.43;;;;;;;;;;5031976;28;20037;-58
2022/01/18 03:37:52;;;;;;;18.88;12.32;;;;;;;;;;5031042;28;20038;-59
2022/01/18 03:40:18;;;;;;;16.85;13.45;;;;;;;;;;5031783;28;20025;-59
2022/01/18 03:42:46;;;;;;;16.48;12.90;;;;;;;;;;5031734;28;20175;-59
2022/01/18 03:45:14;;;;;;;14.32;9.77;;;;;;;;;;5040333;28;20029;-58
2022/01/18 03:47:41;;;;;;;16.30;12.10;;;;;;;;;;5051757;28;20115;-58
2022/01/18 03:50:07;;;;;;;14.07;11.45;;;;;;;;;;5051193;28;20035;-59
2022/01/18 03:52:33;;;;;;;18.02;13.18;;;;;;;;;;5051418;28;20405;-59
2022/01/18 03:54:59;;;;;;;16.60;11.90;;;;;;;;;;5051499;28;20028;-58
2022/01/18 03:57:25;;;;;;;16.17;11.27;;;;;;;;;;5051585;28;20036;-59
2022/01/18 03:59:51;;;;;;;17.85;12.90;;;;;;;;;;5050703;28;20150;-58
2022/01/18 04:02:18;;;;;;;16.63;12.40;;;;;;;;;;5051597;28;20028;-58
2022/01/18 04:04:44;;;;;;;16.23;12.43;;;;;;;;;;5051553;28;20374;-56
2022/01/18 04:07:10;;;;;;;17.65;12.52;;;;;;;;;;5051670;28;20033;-59
2022/01/18 04:09:36;;;;;;;20.13;14.60;;;;;;;;;;5050728;28;20423;-59
2022/01/18 04:12:03;;;;;;;17.90;13.23;;;;;;;;;;5051418;28;20029;-59
2022/01/18 04:14:29;;;;;;;18.75;14.35;;;;;;;;;;5053656;28;20029;-58
2022/01/18 04:17:05;;;;;;;20.38;14.15;;;;;;;;;;5055291;28;20101;-59
2022/01/18 04:27:35;;;;;;;19.83;14.70;;;;;;;;;;5055146;28;20051;-59
2022/01/18 04:30:01;;;;;;;21.75;14.80;;;;;;;;;;5054198;28;20100;-59
2022/01/18 04:32:27;;;;;;;19.75;13.80;;;;;;;;;;5049592;28;20100;-55
2022/01/18 04:34:53;;;;;;;16.63;13.15;;;;;;;;;;5054540;28;20057;-56
2022/01/18 04:37:19;;;;;;;21.85;16.02;;;;;;;;;;5054683;28;20481;-57
2022/01/18 04:39:46;;;;;;;17.77;13.45;;;;;;;;;;5053449;28;20364;-57
2022/01/18 04:42:18;;;;;;;22.42;14.15;;;;;;;;;;5053689;28;20043;-56
2022/01/18 04:50:13;;;;;;;25.38;15.68;;;;;;;;;;5054210;28;20040;-56
2022/01/18 04:52:39;;;;;;;20.27;15.88;;;;;;;;;;5054265;28;20108;-56
2022/01/18 04:55:05;;;;;;;21.20;13.55;;;;;;;;;;5053928;28;20522;-57
2022/01/18 05:00:16;;;;;;;22.85;14.95;;;;;;;;;;5054303;28;20044;-57
2022/01/18 05:02:42;;;;;;;24.63;15.57;;;;;;;;;;5054030;28;20029;-55
2022/01/18 05:05:10;;;;;;;19.30;14.52;;;;;;;;;;5054260;28;20441;-56
2022/01/18 05:07:38;;;;;;;23.20;14.90;;;;;;;;;;5053982;28;20438;-56
2022/01/18 05:10:04;;;;;;;19.35;13.30;;;;;;;;;;5053279;28;20029;-56
2022/01/18 05:12:41;;;;;;;23.20;15.80;;;;;;;;;;5053713;28;20060;-56
2022/01/18 05:15:23;;;;;;;27.90;16.02;;;;;;;;;;5054150;28;20041;-55
2022/01/18 05:23:04;;;;;;;21.25;14.15;;;;;;;;;;5053623;28;20374;-56
2022/01/18 05:25:30;;;;;;;18.25;13.55;;;;;;;;;;5052874;28;20117;-56
2022/01/18 05:27:57;;;;;;;27.60;15.77;;;;;;;;;;5052805;28;20033;-55
2022/01/18 05:30:23;;;;;;;24.83;15.70;;;;;;;;;;5053671;28;20060;-56
2022/01/18 05:32:49;;;;;;;22.17;15.02;;;;;;;;;;5053402;28;20032;-56
2022/01/18 05:35:15;;;;;;;29.33;18.00;;;;;;;;;;5053420;28;20033;-56
2022/01/18 05:37:41;;;;;;;26.63;16.67;;;;;;;;;;5052665;28;20416;-58
2022/01/18 05:40:08;;;;;;;23.80;16.42;;;;;;;;;;5052555;28;20095;-58
2022/01/18 05:42:34;;;;;;;20.25;16.05;;;;;;;;;;5053294;28;20482;-57
2022/01/18 05:44:59;;;;;;;22.90;14.57;;;;;;;;;;5053512;28;20021;-58
2022/01/18 05:47:26;;;;;;;26.65;17.52;;;;;;;;;;5052765;28;20441;-57
2022/01/18 05:49:52;;;;;;;24.10;15.52;;;;;;;;;;5052478;28;20021;-58
2022/01/18 05:52:18;;;;;;;23.38;15.88;;;;;;;;;;5052528;28;20025;-58
2022/01/18 05:54:44;;;;;;;23.30;16.25;;;;;;;;;;5052597;28;20112;-55
2022/01/18 05:57:10;;;;;;;23.10;15.27;;;;;;;;;;5052713;28;20109;-56
2022/01/18 05:59:38;;;;;;;23.38;17.50;;;;;;;;;;5052046;28;20405;-57
2022/01/18 06:02:16;;;;;;;18.25;13.68;;;;;;;;;;5052811;28;20430;-57
2022/01/18 06:07:27;;;;;;;28.20;17.77;;;;;;;;;;5052977;28;20056;-57
2022/01/18 06:09:53;;;;;;;27.30;16.77;;;;;;;;;;5052390;28;20021;-57
2022/01/18 06:12:20;;;;;;;20.83;16.55;;;;;;;;;;5052632;28;20029;-55
2022/01/18 06:14:46;;;;;;;19.70;16.15;;;;;;;;;;5052777;28;20387;-57
2022/01/18 06:17:12;;;;;;;23.83;17.75;;;;;;;;;;5052552;28;20051;-56
2022/01/18 06:19:38;;;;;;;23.88;15.65;;;;;;;;;;5051735;28;20040;-57
2022/01/18 06:22:04;;;;;;;27.20;16.58;;;;;;;;;;5041527;28;20115;-57
2022/01/18 06:24:30;;;;;;;22.95;16.20;;;;;;;;;;5050057;28;20177;-58
2022/01/18 06:26:56;;;;;;;21.70;15.75;;;;;;;;;;5044172;28;20576;-57
2022/01/18 06:29:22;;;;;;;25.87;16.30;;;;;;;;;;5051205;28;20457;-57
2022/01/18 06:31:49;;;;;;;23.67;16.90;;;;;;;;;;5051586;28;20029;-57
2022/01/18 06:34:15;;;;;;;24.63;18.38;;;;;;;;;;5049130;28;20097;-57
2022/01/18 06:36:41;;;;;;;23.20;17.90;;;;;;;;;;5049698;28;20066;-57
2022/01/18 06:39:07;;;;;;;33.47;19.08;;;;;;;;;;5049563;28;20601;-57
2022/01/18 06:41:33;;;;;;;26.48;17.80;;;;;;;;;;5051124;28;20037;-58
2022/01/18 06:43:59;;;;;;;24.52;17.98;;;;;;;;;;5051898;28;20312;-57
2022/01/18 06:46:25;;;;;;;25.35;16.95;;;;;;;;;;5051196;28;20029;-58
2022/01/18 06:48:51;;;;;;;20.35;17.15;;;;;;;;;;5051152;28;20474;-57
2022/01/18 06:51:17;;;;;;;23.67;17.35;;;;;;;;;;5051326;28;20047;-57
2022/01/18 06:53:48;;;;;;;24.45;16.52;;;;;;;;;;5050690;28;20071;-57
2022/01/18 06:56:15;;;;;;;26.83;17.10;;;;;;;;;;5049917;28;20110;-58
2022/01/18 06:58:41;;;;;;;20.30;15.18;;;;;;;;;;5050612;28;20029;-57
2022/01/18 07:01:07;;;;;;;28.67;17.38;;;;;;;;;;5051171;28;20544;-56
2022/01/18 07:03:33;;;;;;;30.10;17.33;;;;;;;;;;5051503;28;20405;-57
2022/01/18 07:05:59;;;;;;;25.67;17.73;;;;;;;;;;5049999;28;20025;-58
2022/01/18 07:08:25;;;;;;;26.60;18.27;;;;;;;;;;5050578;28;20494;-58
2022/01/18 07:10:51;;;;;;;31.27;19.38;;;;;;;;;;5051864;28;20116;-57
2022/01/18 07:13:17;;;;;;;25.00;15.93;;;;;;;;;;5048231;28;20079;-57
2022/01/18 07:15:43;;;;;;;27.70;16.67;;;;;;;;;;5050055;28;20092;-55
2022/01/18 07:18:10;;;;;;;26.40;17.75;;;;;;;;;;5040588;28;20112;-57
2022/01/18 07:20:36;;;;;;;27.63;16.85;;;;;;;;;;5036955;28;20048;-58
2022/01/18 07:23:02;;;;;;;25.77;17.13;;;;;;;;;;5045042;28;20132;-57
2022/01/18 07:25:28;;;;;;;29.33;18.97;;;;;;;;;;5047878;28;20100;-57
2022/01/18 07:27:54;;;;;;;32.58;19.15;;;;;;;;;;5047160;28;20460;-57
2022/01/18 07:30:20;;;;;;;30.77;17.27;;;;;;;;;;5043620;28;20105;-57
2022/01/18 07:32:46;;;;;;;21.52;16.00;;;;;;;;;;5047732;28;20041;-58
2022/01/18 07:35:12;;;;;;;29.80;18.73;;;;;;;;;;5044264;28;20029;-57
2022/01/18 07:37:38;;;;;;;29.73;20.65;;;;;;;;;;5048813;28;20447;-57
2022/01/18 07:40:05;;;;;;;25.92;17.33;;;;;;;;;;5047873;28;20040;-57
2022/01/18 07:42:31;;;;;;;24.60;18.27;;;;;;;;;;5048758;28;20025;-58
2022/01/18 07:44:57;;;;;;;26.90;18.10;;;;;;;;;;5047434;28;20025;-57
2022/01/18 07:47:23;;;;;;;29.10;18.98;;;;;;;;;;5045886;28;20029;-57
2022/01/18 07:49:50;;;;;;;25.80;18.08;;;;;;;;;;5052291;28;20028;-57
2022/01/18 07:52:16;;;;;;;26.05;18.17;;;;;;;;;;5046671;28;20042;-56
2022/01/18 07:54:42;;;;;;;23.10;17.40;;;;;;;;;;5059198;28;20031;-57
2022/01/18 07:57:08;;;;;;;31.42;18.63;;;;;;;;;;5050582;28;20025;-58
2022/01/18 07:59:34;;;;;;;26.90;18.33;;;;;;;;;;5047622;28;20104;-58
2022/01/18 08:02:00;;;;;;;23.98;17.65;;;;;;;;;;5049785;28;20033;-58
2022/01/18 08:04:26;;;;;;;27.98;18.95;;;;;;;;;;5051544;28;20025;-57
2022/01/18 08:06:52;;;;;;;21.37;16.90;;;;;;;;;;5052615;28;20024;-57
2022/01/18 08:09:19;;;;;;;20.80;16.70;;;;;;;;;;5044568;28;20033;-57
2022/01/18 08:11:51;;;;;;;26.37;17.20;;;;;;;;;;5050684;28;20376;-57
2022/01/18 08:14:17;;;;;;;29.77;18.63;;;;;;;;;;5048826;28;20435;-58
2022/01/18 08:17:05;;;;;;;23.92;18.13;;;;;;;;;;5054369;28;20557;-57
2022/01/18 08:19:33;;;;;;;26.40;18.43;;;;;;;;;;5051458;28;20075;-57
2022/01/18 08:21:59;;;;;;;22.97;16.27;;;;;;;;;;5053934;28;20053;-57
2022/01/18 08:24:25;;;;;;;25.95;18.30;;;;;;;;;;5052157;28;20017;-57
2022/01/18 08:26:52;;;;;;;22.52;15.18;;;;;;;;;;5052076;28;20364;-57
2022/01/18 08:29:18;;;;;;;21.58;16.35;;;;;;;;;;5052580;28;20062;-56
2022/01/18 08:31:44;;;;;;;23.10;16.35;;;;;;;;;;5051904;28;20021;-56
2022/01/18 08:34:10;;;;;;;21.40;15.23;;;;;;;;;;5053030;28;20429;-56
2022/01/18 08:36:37;;;;;;;24.27;17.25;;;;;;;;;;5053547;28;20067;-55
2022/01/18 08:39:03;;;;;;;19.92;14.30;;;;;;;;;;5052448;28;20075;-56
2022/01/18 08:41:29;;;;;;;25.08;16.75;;;;;;;;;;5054124;28;20029;-56
2022/01/18 08:43:56;;;;;;;24.23;16.30;;;;;;;;;;5053249;28;20433;-54
2022/01/18 08:46:22;;;;;;;23.45;16.08;;;;;;;;;;5053974;28;20116;-56
2022/01/18 08:48:48;;;;;;;21.65;16.05;;;;;;;;;;5053041;28;20108;-56
2022/01/18 08:51:15;;;;;;;20.23;14.98;;;;;;;;;;5054232;28;20377;-56
2022/01/18 08:53:42;;;;;;;22.52;15.70;;;;;;;;;;5052984;28;20071;-56
2022/01/18 08:56:08;;;;;;;20.20;14.05;;;;;;;;;;5053854;28;20140;-56
2022/01/18 08:58:35;;;;;;;25.77;13.57;;;;;;;;;;5051086;28;20426;-56
2022/01/18 09:01:02;;;;;;;24.47;15.67;;;;;;;;;;5052689;28;20029;-58
2022/01/18 09:03:28;;;;;;;23.20;16.90;;;;;;;;;;5053617;28;20172;-57
2022/01/18 09:05:56;;;;;;;22.65;15.55;;;;;;;;;;5053182;28;20056;-57
2022/01/18 09:08:22;;;;;;;21.90;14.32;;;;;;;;;;5052390;28;20059;-57
2022/01/18 09:10:48;;;;;;;24.73;15.40;;;;;;;;;;5052851;28;20496;-57
2022/01/18 09:13:17;;;;;;;24.02;16.48;;;;;;;;;;5053372;28;20032;-57
2022/01/18 09:15:44;;;;;;;23.95;14.68;;;;;;;;;;5051644;28;20471;-57
2022/01/18 09:18:10;;;;;;;19.23;13.73;;;;;;;;;;5051573;28;20467;-54
2022/01/18 09:20:39;;;;;;;22.60;15.43;;;;;;;;;;5053488;28;20099;-57
2022/01/18 09:23:05;;;;;;;23.23;16.70;;;;;;;;;;5053004;28;20068;-57
2022/01/18 09:25:32;;;;;;;19.80;15.10;;;;;;;;;;5052564;28;20141;-57
2022/01/18 09:27:58;;;;;;;22.80;13.85;;;;;;;;;;5051091;28;20029;-57
2022/01/18 09:30:26;;;;;;;26.98;16.70;;;;;;;;;;5052419;28;20021;-57
2022/01/18 09:32:52;;;;;;;24.38;16.17;;;;;;;;;;5053097;28;20025;-57
2022/01/18 09:35:18;;;;;;;22.52;17.05;;;;;;;;;;5052045;28;20029;-56
2022/01/18 09:37:45;;;;;;;19.05;14.80;;;;;;;;;;5052070;28;20436;-56
2022/01/18 09:40:14;;;;;;;21.40;14.32;;;;;;;;;;5050318;28;20493;-57
2022/01/18 09:42:41;;;;;;;16.83;11.23;;;;;;;;;;5050877;28;20025;-57
2022/01/18 09:45:09;;;;;;;21.87;12.43;;;;;;;;;;5048470;28;20037;-57
2022/01/18 09:47:38;;;;;;;27.17;15.45;;;;;;;;;;5051945;28;20033;-57
2022/01/18 09:50:05;;;;;;;21.58;15.57;;;;;;;;;;5050842;28;20028;-56
2022/01/18 09:52:31;;;;;;;23.85;14.05;;;;;;;;;;5052293;28;20305;-55
2022/01/18 09:54:58;;;;;;;19.08;14.60;;;;;;;;;;5052660;28;20040;-54
2022/01/18 09:57:24;;;;;;;23.50;14.90;;;;;;;;;;5051786;28;20044;-56
2022/01/18 09:59:50;;;;;;;17.58;13.98;;;;;;;;;;5050156;28;20459;-57
2022/01/18 10:02:15;;;;;;;22.27;14.00;;;;;;;;;;5051442;28;20052;-57
2022/01/18 10:04:42;;;;;;;19.30;13.63;;;;;;;;;;5052588;28;20021;-56
2022/01/18 10:07:09;;;;;;;20.08;13.07;;;;;;;;;;5052566;28;20079;-57
2022/01/18 10:09:35;;;;;;;27.40;13.63;;;;;;;;;;5051283;28;20108;-56
2022/01/18 10:12:12;;;;;;;13.45;10.23;;;;;;;;;;5052000;28;20032;-56
2022/01/18 10:14:39;;;;;;;17.33;11.63;;;;;;;;;;5052153;28;20025;-56
2022/01/18 10:17:06;;;;;;;20.85;12.23;;;;;;;;;;5047857;28;20025;-57
2022/01/18 10:19:33;;;;;;;19.90;12.55;;;;;;;;;;5050837;28;20084;-56
2022/01/18 10:22:09;;;;;;;18.02;10.80;;;;;;;;;;5043859;28;20033;-55
2022/01/18 10:24:35;;;;;;;18.60;11.02;;;;;;;;;;5051850;28;20099;-57
2022/01/18 10:27:01;;;;;;;20.88;10.93;;;;;;;;;;5051243;28;20037;-55
2022/01/18 10:29:29;;;;;;;16.65;9.75;;;;;;;;;;5048953;28;20445;-56
2022/01/18 10:31:57;;;;;;;21.02;10.18;;;;;;;;;;5049508;28;20147;-53
2022/01/18 10:37:10;;;;;;;15.25;9.88;;;;;;;;;;5049957;28;20043;-55
2022/01/18 10:39:41;;;;;;;14.20;9.38;;;;;;;;;;5050176;28;20164;-57
2022/01/18 10:42:24;;;;;;;11.98;8.23;;;;;;;;;;5051705;28;20032;-54
2022/01/18 10:45:09;;;;;;;12.07;8.05;;;;;;;;;;5051850;28;20055;-56
2022/01/18 10:47:35;;;;;;;16.17;9.77;;;;;;;;;;5040856;28;20029;-57
2022/01/18 10:50:13;;;;;;;12.40;7.78;;;;;;;;;;5050459;28;20422;-57
2022/01/18 10:52:39;;;;;;;13.40;9.52;;;;;;;;;;5051329;28;20021;-53
2022/01/18 10:55:05;;;;;;;15.90;9.95;;;;;;;;;;5051530;28;20025;-57
2022/01/18 10:57:36;;;;;;;10.75;8.77;;;;;;;;;;5050717;28;20490;-56
2022/01/18 11:00:02;;;;;;;;;;;;;;;;;;5051014;28;20399;-55
2022/01/18 11:02:32;;;;;;;14.38;8.05;;;;;;;;;;5051113;28;19909;-57
2022/01/18 11:04:58;;;;;;;13.48;10.15;;;;;;;;;;5051260;28;20036;-57
2022/01/18 11:07:28;;;;;;;15.60;9.07;;;;;;;;;;5051465;28;20025;-55
2022/01/18 11:10:03;;;;;;;13.48;8.88;;;;;;;;;;5050520;28;20083;-57
2022/01/18 11:12:30;;;;;;;14.57;8.77;;;;;;;;;;5049264;28;20063;-57
2022/01/18 11:15:04;;;;;;;15.82;9.05;;;;;;;;;;5051582;28;20386;-57
2022/01/18 11:17:38;;;;;;;11.82;7.78;;;;;;;;;;5050894;28;20025;-57
2022/01/18 11:20:05;;;;;;;14.18;9.35;;;;;;;;;;5051005;28;20037;-54
2022/01/18 11:22:31;;;;;;;12.55;7.75;;;;;;;;;;5052043;28;20033;-53
2022/01/18 11:25:01;;;;;;;12.90;8.48;;;;;;;;;;5055462;28;20446;-55
2022/01/18 11:27:30;;;;;;;14.57;9.15;;;;;;;;;;5055383;28;20478;-54
2022/01/18 11:29:56;;;;;;;10.77;7.13;;;;;;;;;;5054360;28;20045;-56
2022/01/18 11:32:24;;;;;;;12.15;8.30;;;;;;;;;;5054863;28;20078;-56
2022/01/18 11:35:11;;;;;;;10.80;8.98;;;;;;;;;;5055509;28;20029;-58
2022/01/18 11:37:57;;;;;;;12.80;8.77;;;;;;;;;;5052443;28;20121;-58
2022/01/18 11:40:24;;;;;;;12.75;7.70;;;;;;;;;;5054470;28;20064;-57
2022/01/18 11:42:50;;;;;;;13.48;8.77;;;;;;;;;;5047115;28;20025;-56
2022/01/18 11:45:25;;;;;;;9.45;7.13;;;;;;;;;;5054485;28;20029;-58
2022/01/18 11:48:13;;;;;;;14.05;7.32;;;;;;;;;;5054658;28;20433;-58
2022/01/18 11:50:50;;;;;;;12.38;8.50;;;;;;;;;;5054543;28;20017;-56
2022/01/18 11:53:26;;;;;;;8.18;5.47;;;;;;;;;;5054986;28;20057;-58
2022/01/18 11:55:54;;;;;;;12.75;7.03;;;;;;;;;;5054811;28;20179;-58
2022/01/18 11:58:21;;;;;;;8.40;6.13;;;;;;;;;;5040200;28;20079;-58
2022/01/18 12:00:52;;;;;;;11.90;6.85;;;;;;;;;;5050260;28;20614;-58
2022/01/18 12:03:20;;;;;;;10.65;7.35;;;;;;;;;;5053858;28;20035;-58
2022/01/18 12:05:46;;;;;;;12.95;7.50;;;;;;;;;;5054545;28;20025;-58
2022/01/18 12:08:28;;;;;;;7.97;6.28;;;;;;;;;;5053167;28;20029;-58
2022/01/18 12:10:54;;;;;;;9.32;6.70;;;;;;;;;;5052239;28;20080;-54
2022/01/18 12:13:25;;;;;;;9.98;6.22;;;;;;;;;;5053186;28;20060;-58
2022/01/18 12:15:52;;;;;;;13.38;6.07;;;;;;;;;;5052812;28;20029;-58
2022/01/18 12:18:22;;;;;;;8.93;6.60;;;;;;;;;;5052618;28;20132;-58
2022/01/18 12:20:52;;;;;;;11.10;7.45;;;;;;;;;;5054462;28;20024;-57
2022/01/18 12:23:34;;;;;;;10.48;6.07;;;;;;;;;;5054148;28;20522;-59
2022/01/18 12:26:39;;;;;;;9.70;6.45;;;;;;;;;;5054350;28;20025;-57
2022/01/18 12:34:31;;;;;;;13.68;7.68;;;;;;;;;;5052046;28;20064;-56
2022/01/18 12:37:11;;;;;;;13.40;7.35;;;;;;;;;;5053928;28;20045;-57
2022/01/18 12:45:06;;;;;;;10.30;6.78;;;;;;;;;;5046601;28;20056;-53
2022/01/18 12:47:35;;;;;;;8.07;5.57;;;;;;;;;;5052569;28;20106;-55
2022/01/18 12:50:01;;;;;;;9.60;7.00;;;;;;;;;;5050298;28;20033;-57
2022/01/18 12:52:27;;;;;;;11.07;6.30;;;;;;;;;;5053048;28;20036;-56
2022/01/18 12:54:53;;;;;;;12.38;5.10;;;;;;;;;;5053984;28;20265;-56
2022/01/18 12:57:20;;;;;;;8.93;6.07;;;;;;;;;;5050086;28;20060;-53
2022/01/18 13:00:16;;;;;;;11.77;4.60;;;;;;;;;;5052412;28;20527;-57
2022/01/18 13:02:46;;;;;;;6.10;4.45;;;;;;;;;;5043976;28;20122;-55
2022/01/18 13:05:12;;;;;;;;;;;;;;;;;;5050133;28;20056;-54
2022/01/18 13:07:51;;;;;;;7.38;3.67;;;;;;;;;;5052149;28;20001;-55
2022/01/18 13:10:17;;;;;;;9.80;3.15;;;;;;;;;;5053309;28;20191;-55
2022/01/18 13:12:46;;;;;;;6.03;3.30;;;;;;;;;;5049075;28;20033;-57
2022/01/18 13:15:22;;;;;;;5.65;3.58;;;;;;;;;;5053429;28;20375;-57
2022/01/18 13:23:37;;;;;;;8.52;3.85;;;;;;;;;;5052635;28;20481;-57
2022/01/18 13:26:03;;;;;;;3.72;3.22;;;;;;;;;;5046300;28;20477;-57
2022/01/18 13:28:33;;;;;;;5.20;4.20;;;;;;;;;;5051542;28;20036;-56
2022/01/18 13:31:13;;;;;;;6.95;3.72;;;;;;;;;;5053472;28;20040;-56
2022/01/18 13:33:52;;;;;;;6.00;3.13;;;;;;;;;;5052599;28;20024;-57
2022/01/18 13:36:20;;;;;;;10.52;3.22;;;;;;;;;;5053239;28;20086;-58
2022/01/18 13:38:46;;;;;;;6.60;3.05;;;;;;;;;;5051836;28;20045;-55
2022/01/18 13:41:12;;;;;;;3.53;2.70;;;;;;;;;;5052354;28;20032;-57
2022/01/18 13:43:38;;;;;;;7.50;4.13;;;;;;;;;;5052284;28;20348;-56
2022/01/18 13:46:04;;;;;;;5.97;3.45;;;;;;;;;;5051962;28;20025;-56
2022/01/18 13:48:32;;;;;;;7.05;3.67;;;;;;;;;;5051447;28;20123;-57
2022/01/18 13:50:58;;;;;;;8.80;2.97;;;;;;;;;;5052713;28;20453;-57
2022/01/18 13:53:32;;;;;;;5.78;3.33;;;;;;;;;;5052393;28;20474;-57
2022/01/18 13:55:59;;;;;;;4.68;2.80;;;;;;;;;;5046418;28;20021;-55
2022/01/18 13:58:29;;;;;;;8.85;3.58;;;;;;;;;;5051927;28;20025;-58
2022/01/18 14:01:06;;;;;;;3.83;2.40;;;;;;;;;;5051580;28;20167;-56
2022/01/18 14:03:37;;;;;;;4.20;2.20;;;;;;;;;;5052074;28;20052;-56
2022/01/18 14:06:03;;;;;;;;;;;;;;;;;;5045940;28;20021;-56
2022/01/18 14:08:37;;;;;;;6.15;2.25;;;;;;;;;;5045164;28;19916;-57
2022/01/18 14:11:04;;;;;;;3.47;1.75;;;;;;;;;;5046395;28;20025;-57
2022/01/18 14:13:35;;;;;;;3.30;1.83;;;;;;;;;;5051423;28;20592;-56
2022/01/18 14:16:01;;;;;;;5.60;1.85;;;;;;;;;;5052186;28;20110;-57
2022/01/18 14:18:27;;;;;;;5.80;2.55;;;;;;;;;;5051087;28;20083;-57
2022/01/18 14:20:53;;;;;;;4.28;1.88;;;;;;;;;;5051370;28;20033;-56
2022/01/18 14:23:21;;;;;;;3.13;1.52;;;;;;;;;;5052736;28;20048;-57
2022/01/18 14:25:48;;;;;;;4.57;2.67;;;;;;;;;;5052633;28;20021;-56
2022/01/18 14:28:15;;;;;;;4.93;2.88;;;;;;;;;;5051094;28;20033;-57
2022/01/18 14:30:43;;;;;;;4.30;2.20;;;;;;;;;;5051947;28;20029;-57
2022/01/18 14:33:10;;;;;;;6.07;2.17;;;;;;;;;;5051113;28;20553;-57
2022/01/18 14:35:45;;;;;;;5.55;2.35;;;;;;;;;;5051873;28;20128;-56
2022/01/18 14:38:12;;;;;;;3.63;1.75;;;;;;;;;;5051127;28;20090;-54
2022/01/18 14:40:48;;;;;;;4.50;2.67;;;;;;;;;;5051697;28;20391;-56
2022/01/18 14:43:26;;;;;;;3.15;2.00;;;;;;;;;;5051865;28;20045;-55
2022/01/18 14:46:22;;;;;;;6.07;2.72;;;;;;;;;;5050806;28;20506;-57
2022/01/18 14:48:49;;;;;;;4.82;2.30;;;;;;;;;;5051174;28;20041;-58
2022/01/18 14:51:15;;;;;;;4.78;2.50;;;;;;;;;;5052093;28;20116;-55
2022/01/18 14:53:43;;;;;;;6.22;2.33;;;;;;;;;;5050860;28;20028;-56
2022/01/18 14:56:09;;;;;;;4.57;2.92;;;;;;;;;;5051190;28;20087;-57
2022/01/18 14:58:36;;;;;;;3.80;2.05;;;;;;;;;;5049248;28;20037;-57
2022/01/18 15:01:04;;;;;;;4.40;2.42;;;;;;;;;;5051152;28;20565;-55
2022/01/18 15:03:30;;;;;;;4.75;2.13;;;;;;;;;;5032072;28;20034;-57
2022/01/18 15:05:56;;;;;;;6.55;2.78;;;;;;;;;;5040218;28;20035;-57
2022/01/18 15:08:22;;;;;;;3.05;2.20;;;;;;;;;;5050953;28;20090;-57
2022/01/18 15:10:49;;;;;;;9.07;3.05;;;;;;;;;;5051191;28;20504;-57
2022/01/18 15:13:14;;;;;;;4.90;2.35;;;;;;;;;;5051567;28;20032;-58
2022/01/18 15:15:41;;;;;;;3.88;2.80;;;;;;;;;;5051311;28;20385;-57
2022/01/18 15:18:07;;;;;;;3.65;2.63;;;;;;;;;;5050850;28;20020;-57
2022/01/18 15:20:33;;;;;;;5.90;3.53;;;;;;;;;;5051247;28;20029;-57
2022/01/18 15:22:59;;;;;;;10.07;3.17;;;;;;;;;;5050996;28;20037;-57
2022/01/18 15:25:25;;;;;;;6.00;3.95;;;;;;;;;;5050951;28;20031;-57
2022/01/18 15:27:51;;;;;;;5.18;3.50;;;;;;;;;;5050765;28;20099;-57
2022/01/18 15:30:31;;;;;;;3.97;2.72;;;;;;;;;;5050702;28;20037;-57
2022/01/18 15:32:58;;;;;;;4.05;3.05;;;;;;;;;;5041341;28;20025;-57
2022/01/18 15:35:24;;;;;;;7.32;2.88;;;;;;;;;;5051254;28;20497;-56
2022/01/18 15:37:50;;;;;;;4.72;2.72;;;;;;;;;;5048115;28;20104;-56
2022/01/18 15:40:16;;;;;;;3.03;2.08;;;;;;;;;;5050979;28;20033;-57
2022/01/18 15:42:42;;;;;;;3.85;2.25;;;;;;;;;;5050284;28;20032;-57
2022/01/18 15:45:09;;;;;;;8.20;3.20;;;;;;;;;;5050886;28;20025;-52
2022/01/18 15:47:35;;;;;;;13.25;3.33;;;;;;;;;;5051553;28;20033;-54
2022/01/18 15:50:01;;;;;;;3.78;2.38;;;;;;;;;;5050637;28;20029;-57
2022/01/18 15:52:28;;;;;;;7.13;2.58;;;;;;;;;;5050355;28;20082;-56
2022/01/18 15:54:54;;;;;;;2.85;1.80;;;;;;;;;;5051050;28;20029;-57
2022/01/18 15:57:20;;;;;;;3.83;2.28;;;;;;;;;;5051407;28;20126;-56
2022/01/18 15:59:47;;;;;;;2.53;1.13;;;;;;;;;;5049132;28;20037;-54